sensor_id;sensor_type;location;lat;lon;timestamp;P1;durP1;ratioP1;P2;durP2;ratioP2
65187;SDS011;51775;51.148;6.950;2023-02-23T00:01:27;7.22;;;4.90;;
65187;SDS011;51775;51.148;6.950;2023-02-23T00:03:55;6.90;;;5.25;;
65187;SDS011;51775;51.148;6.950;2023-02-23T00:06:22;6.60;;;5.00;;
65187;SDS011;51775;51.148;6.950;2023-02-23T00:08:48;6.07;;;4.88;;
65187;SDS011;51775;51.148;6.950;2023-02-23T00:11:15;6.10;;;4.82;;
65187;SDS011;51775;51.148;6.950;2023-02-23T00:13:41;6.63;;;5.13;;
65187;SDS011;51775;51.148;6.950;2023-02-23T00:16:07;6.95;;;4.88;;
65187;SDS011;51775;51.148;6.950;2023-02-23T00:18:34;5.78;;;4.70;;
65187;SDS011;51775;51.148;6.950;2023-02-23T00:21:00;7.32;;;4.60;;
65187;SDS011;51775;51.148;6.950;2023-02-23T00:23:25;5.13;;;4.18;;
65187;SDS011;51775;51.148;6.950;2023-02-23T00:25:50;6.38;;;5.00;;
65187;SDS011;51775;51.148;6.950;2023-02-23T00:28:15;5.80;;;4.68;;
65187;SDS011;51775;51.148;6.950;2023-02-23T00:30:40;6.05;;;4.50;;
65187;SDS011;51775;51.148;6.950;2023-02-23T00:33:06;6.20;;;4.70;;
65187;SDS011;51775;51.148;6.950;2023-02-23T00:35:31;6.25;;;4.97;;
65187;SDS011;51775;51.148;6.950;2023-02-23T00:37:57;6.72;;;5.10;;
65187;SDS011;51775;51.148;6.950;2023-02-23T00:40:22;6.75;;;5.07;;
65187;SDS011;51775;51.148;6.950;2023-02-23T00:42:48;6.20;;;4.80;;
65187;SDS011;51775;51.148;6.950;2023-02-23T00:45:13;6.13;;;4.78;;
65187;SDS011;51775;51.148;6.950;2023-02-23T00:47:40;6.53;;;4.72;;
65187;SDS011;51775;51.148;6.950;2023-02-23T00:50:10;6.10;;;4.50;;
65187;SDS011;51775;51.148;6.950;2023-02-23T00:52:37;6.05;;;4.78;;
65187;SDS011;51775;51.148;6.950;2023-02-23T00:55:04;5.80;;;4.93;;
65187;SDS011;51775;51.148;6.950;2023-02-23T00:57:31;6.18;;;4.68;;
65187;SDS011;51775;51.148;6.950;2023-02-23T00:59:57;6.43;;;5.00;;
65187;SDS011;51775;51.148;6.950;2023-02-23T01:02:22;6.97;;;5.07;;
65187;SDS011;51775;51.148;6.950;2023-02-23T01:04:47;6.75;;;5.10;;
65187;SDS011;51775;51.148;6.950;2023-02-23T01:07:13;6.50;;;5.00;;
65187;SDS011;51775;51.148;6.950;2023-02-23T01:09:38;6.82;;;5.18;;
65187;SDS011;51775;51.148;6.950;2023-02-23T01:12:03;7.72;;;5.30;;
65187;SDS011;51775;51.148;6.950;2023-02-23T01:14:28;6.57;;;5.10;;
65187;SDS011;51775;51.148;6.950;2023-02-23T01:16:54;6.35;;;4.90;;
65187;SDS011;51775;51.148;6.950;2023-02-23T01:19:19;6.63;;;5.05;;
65187;SDS011;51775;51.148;6.950;2023-02-23T01:21:45;6.63;;;4.88;;
65187;SDS011;51775;51.148;6.950;2023-02-23T01:27:01;7.80;;;4.70;;
65187;SDS011;51775;51.148;6.950;2023-02-23T01:29:26;6.13;;;4.78;;
65187;SDS011;51775;51.148;6.950;2023-02-23T01:31:51;6.45;;;5.05;;
65187;SDS011;51775;51.148;6.950;2023-02-23T01:34:17;6.95;;;5.28;;
65187;SDS011;51775;51.148;6.950;2023-02-23T01:36:44;6.05;;;4.93;;
65187;SDS011;51775;51.148;6.950;2023-02-23T01:39:13;6.50;;;5.15;;
65187;SDS011;51775;51.148;6.950;2023-02-23T01:41:40;5.65;;;4.32;;
65187;SDS011;51775;51.148;6.950;2023-02-23T01:44:07;6.13;;;4.78;;
65187;SDS011;51775;51.148;6.950;2023-02-23T01:46:52;6.32;;;4.68;;
65187;SDS011;51775;51.148;6.950;2023-02-23T01:49:25;6.03;;;4.68;;
65187;SDS011;51775;51.148;6.950;2023-02-23T01:54:36;6.53;;;4.97;;
65187;SDS011;51775;51.148;6.950;2023-02-23T01:57:09;6.38;;;4.80;;
65187;SDS011;51775;51.148;6.950;2023-02-23T01:59:38;6.45;;;5.00;;
65187;SDS011;51775;51.148;6.950;2023-02-23T02:02:06;5.95;;;4.78;;
65187;SDS011;51775;51.148;6.950;2023-02-23T02:04:33;6.35;;;4.63;;
65187;SDS011;51775;51.148;6.950;2023-02-23T02:06:59;6.13;;;4.60;;
65187;SDS011;51775;51.148;6.950;2023-02-23T02:09:25;6.65;;;4.93;;
65187;SDS011;51775;51.148;6.950;2023-02-23T02:11:51;6.43;;;4.88;;
65187;SDS011;51775;51.148;6.950;2023-02-23T02:14:17;5.82;;;4.68;;
65187;SDS011;51775;51.148;6.950;2023-02-23T02:19:38;6.60;;;5.00;;
65187;SDS011;51775;51.148;6.950;2023-02-23T02:47:16;5.68;;;4.72;;
65187;SDS011;51775;51.148;6.950;2023-02-23T02:49:58;6.10;;;5.03;;
65187;SDS011;51775;51.148;6.950;2023-02-23T02:52:40;6.10;;;4.68;;
65187;SDS011;51775;51.148;6.950;2023-02-23T02:55:23;6.32;;;4.78;;
65187;SDS011;51775;51.148;6.950;2023-02-23T02:57:51;6.25;;;4.80;;
65187;SDS011;51775;51.148;6.950;2023-02-23T03:00:27;6.63;;;5.18;;
65187;SDS011;51775;51.148;6.950;2023-02-23T03:02:58;6.68;;;4.90;;
65187;SDS011;51775;51.148;6.950;2023-02-23T03:05:24;6.85;;;5.28;;
65187;SDS011;51775;51.148;6.950;2023-02-23T03:08:27;6.15;;;4.97;;
65187;SDS011;51775;51.148;6.950;2023-02-23T03:11:05;6.05;;;4.97;;
65187;SDS011;51775;51.148;6.950;2023-02-23T03:21:30;6.18;;;4.85;;
65187;SDS011;51775;51.148;6.950;2023-02-23T03:27:37;6.45;;;4.97;;
65187;SDS011;51775;51.148;6.950;2023-02-23T03:30:00;6.72;;;5.38;;
65187;SDS011;51775;51.148;6.950;2023-02-23T03:32:43;6.30;;;4.78;;
65187;SDS011;51775;51.148;6.950;2023-02-23T03:38:10;6.72;;;5.05;;
65187;SDS011;51775;51.148;6.950;2023-02-23T03:40:46;6.25;;;4.72;;
65187;SDS011;51775;51.148;6.950;2023-02-23T03:43:24;7.45;;;5.43;;
65187;SDS011;51775;51.148;6.950;2023-02-23T03:45:56;6.72;;;5.35;;
65187;SDS011;51775;51.148;6.950;2023-02-23T03:48:25;6.63;;;5.15;;
65187;SDS011;51775;51.148;6.950;2023-02-23T03:50:52;6.15;;;4.70;;
65187;SDS011;51775;51.148;6.950;2023-02-23T03:53:21;7.20;;;5.43;;
65187;SDS011;51775;51.148;6.950;2023-02-23T03:55:53;6.70;;;4.88;;
65187;SDS011;51775;51.148;6.950;2023-02-23T03:58:22;5.95;;;4.72;;
65187;SDS011;51775;51.148;6.950;2023-02-23T04:00:54;6.85;;;5.05;;
65187;SDS011;51775;51.148;6.950;2023-02-23T04:03:23;6.72;;;4.90;;
65187;SDS011;51775;51.148;6.950;2023-02-23T04:05:51;6.50;;;4.90;;
65187;SDS011;51775;51.148;6.950;2023-02-23T04:08:20;7.18;;;5.50;;
65187;SDS011;51775;51.148;6.950;2023-02-23T04:10:53;6.30;;;4.70;;
65187;SDS011;51775;51.148;6.950;2023-02-23T04:13:25;6.82;;;5.20;;
65187;SDS011;51775;51.148;6.950;2023-02-23T04:18:45;6.93;;;5.45;;
65187;SDS011;51775;51.148;6.950;2023-02-23T04:21:11;6.28;;;4.80;;
65187;SDS011;51775;51.148;6.950;2023-02-23T04:23:36;6.75;;;5.10;;
65187;SDS011;51775;51.148;6.950;2023-02-23T04:26:03;6.78;;;5.38;;
65187;SDS011;51775;51.148;6.950;2023-02-23T04:28:29;7.10;;;5.57;;
65187;SDS011;51775;51.148;6.950;2023-02-23T04:30:54;7.88;;;5.50;;
65187;SDS011;51775;51.148;6.950;2023-02-23T04:33:20;7.30;;;5.43;;
65187;SDS011;51775;51.148;6.950;2023-02-23T04:35:46;6.88;;;5.50;;
65187;SDS011;51775;51.148;6.950;2023-02-23T04:38:11;8.02;;;5.90;;
65187;SDS011;51775;51.148;6.950;2023-02-23T04:40:37;7.40;;;5.60;;
65187;SDS011;51775;51.148;6.950;2023-02-23T04:43:02;7.75;;;5.70;;
65187;SDS011;51775;51.148;6.950;2023-02-23T04:45:27;7.88;;;5.82;;
65187;SDS011;51775;51.148;6.950;2023-02-23T04:47:53;8.15;;;5.80;;
65187;SDS011;51775;51.148;6.950;2023-02-23T04:50:18;8.27;;;5.75;;
65187;SDS011;51775;51.148;6.950;2023-02-23T04:52:45;7.82;;;5.78;;
65187;SDS011;51775;51.148;6.950;2023-02-23T04:55:17;8.15;;;5.78;;
65187;SDS011;51775;51.148;6.950;2023-02-23T04:57:45;8.30;;;6.00;;
65187;SDS011;51775;51.148;6.950;2023-02-23T05:00:11;7.07;;;5.35;;
65187;SDS011;51775;51.148;6.950;2023-02-23T05:02:37;7.53;;;5.60;;
65187;SDS011;51775;51.148;6.950;2023-02-23T05:05:02;8.10;;;5.90;;
65187;SDS011;51775;51.148;6.950;2023-02-23T05:07:28;8.15;;;5.57;;
65187;SDS011;51775;51.148;6.950;2023-02-23T05:09:53;7.35;;;5.45;;
65187;SDS011;51775;51.148;6.950;2023-02-23T05:12:19;6.70;;;5.03;;
65187;SDS011;51775;51.148;6.950;2023-02-23T05:14:44;8.02;;;5.75;;
65187;SDS011;51775;51.148;6.950;2023-02-23T05:17:09;7.45;;;5.47;;
65187;SDS011;51775;51.148;6.950;2023-02-23T05:19:34;8.35;;;5.60;;
65187;SDS011;51775;51.148;6.950;2023-02-23T05:22:00;7.82;;;5.80;;
65187;SDS011;51775;51.148;6.950;2023-02-23T05:24:25;9.07;;;5.97;;
65187;SDS011;51775;51.148;6.950;2023-02-23T05:26:50;8.30;;;5.72;;
65187;SDS011;51775;51.148;6.950;2023-02-23T05:29:15;7.95;;;5.40;;
65187;SDS011;51775;51.148;6.950;2023-02-23T05:31:41;8.40;;;6.03;;
65187;SDS011;51775;51.148;6.950;2023-02-23T05:34:06;9.15;;;6.25;;
65187;SDS011;51775;51.148;6.950;2023-02-23T05:36:31;8.93;;;6.28;;
65187;SDS011;51775;51.148;6.950;2023-02-23T05:38:57;9.27;;;6.15;;
65187;SDS011;51775;51.148;6.950;2023-02-23T05:41:22;8.02;;;5.85;;
65187;SDS011;51775;51.148;6.950;2023-02-23T05:43:48;8.20;;;5.88;;
65187;SDS011;51775;51.148;6.950;2023-02-23T05:46:14;8.52;;;6.10;;
65187;SDS011;51775;51.148;6.950;2023-02-23T05:48:43;8.30;;;5.80;;
65187;SDS011;51775;51.148;6.950;2023-02-23T05:51:09;9.10;;;6.40;;
65187;SDS011;51775;51.148;6.950;2023-02-23T05:53:36;8.80;;;6.32;;
65187;SDS011;51775;51.148;6.950;2023-02-23T05:56:02;7.10;;;5.18;;
65187;SDS011;51775;51.148;6.950;2023-02-23T05:58:28;8.02;;;5.90;;
65187;SDS011;51775;51.148;6.950;2023-02-23T06:00:54;8.65;;;6.13;;
65187;SDS011;51775;51.148;6.950;2023-02-23T06:03:19;9.10;;;6.03;;
65187;SDS011;51775;51.148;6.950;2023-02-23T06:05:48;8.02;;;5.72;;
65187;SDS011;51775;51.148;6.950;2023-02-23T06:08:14;8.15;;;5.85;;
65187;SDS011;51775;51.148;6.950;2023-02-23T06:10:39;8.02;;;5.68;;
65187;SDS011;51775;51.148;6.950;2023-02-23T06:13:05;8.32;;;5.63;;
65187;SDS011;51775;51.148;6.950;2023-02-23T06:15:30;8.85;;;6.00;;
65187;SDS011;51775;51.148;6.950;2023-02-23T06:17:55;8.52;;;5.47;;
65187;SDS011;51775;51.148;6.950;2023-02-23T06:20:20;9.35;;;6.30;;
65187;SDS011;51775;51.148;6.950;2023-02-23T06:22:46;8.48;;;5.40;;
65187;SDS011;51775;51.148;6.950;2023-02-23T06:25:11;7.70;;;5.70;;
65187;SDS011;51775;51.148;6.950;2023-02-23T06:27:36;8.25;;;5.70;;
65187;SDS011;51775;51.148;6.950;2023-02-23T06:30:05;8.52;;;6.00;;
65187;SDS011;51775;51.148;6.950;2023-02-23T06:32:31;8.63;;;5.88;;
65187;SDS011;51775;51.148;6.950;2023-02-23T06:34:56;9.23;;;6.07;;
65187;SDS011;51775;51.148;6.950;2023-02-23T06:37:21;8.15;;;5.95;;
65187;SDS011;51775;51.148;6.950;2023-02-23T06:39:47;8.35;;;5.90;;
65187;SDS011;51775;51.148;6.950;2023-02-23T06:42:12;8.68;;;5.80;;
65187;SDS011;51775;51.148;6.950;2023-02-23T06:44:37;7.90;;;5.57;;
65187;SDS011;51775;51.148;6.950;2023-02-23T06:47:03;8.15;;;5.57;;
65187;SDS011;51775;51.148;6.950;2023-02-23T06:49:28;8.55;;;5.60;;
65187;SDS011;51775;51.148;6.950;2023-02-23T06:51:53;7.90;;;5.45;;
65187;SDS011;51775;51.148;6.950;2023-02-23T06:54:19;7.68;;;5.78;;
65187;SDS011;51775;51.148;6.950;2023-02-23T06:56:44;8.38;;;5.68;;
65187;SDS011;51775;51.148;6.950;2023-02-23T06:59:09;8.32;;;5.72;;
65187;SDS011;51775;51.148;6.950;2023-02-23T07:01:34;8.03;;;5.67;;
65187;SDS011;51775;51.148;6.950;2023-02-23T07:04:00;8.70;;;6.07;;
65187;SDS011;51775;51.148;6.950;2023-02-23T07:06:25;9.25;;;6.10;;
65187;SDS011;51775;51.148;6.950;2023-02-23T07:08:50;9.55;;;6.75;;
65187;SDS011;51775;51.148;6.950;2023-02-23T07:11:16;10.15;;;6.57;;
65187;SDS011;51775;51.148;6.950;2023-02-23T07:13:43;9.05;;;6.53;;
65187;SDS011;51775;51.148;6.950;2023-02-23T07:16:08;9.32;;;6.53;;
65187;SDS011;51775;51.148;6.950;2023-02-23T07:18:33;9.05;;;6.55;;
65187;SDS011;51775;51.148;6.950;2023-02-23T07:20:59;9.23;;;5.93;;
65187;SDS011;51775;51.148;6.950;2023-02-23T07:23:24;7.78;;;5.50;;
65187;SDS011;51775;51.148;6.950;2023-02-23T07:25:50;8.18;;;5.90;;
65187;SDS011;51775;51.148;6.950;2023-02-23T07:28:16;9.10;;;6.00;;
65187;SDS011;51775;51.148;6.950;2023-02-23T07:30:41;8.13;;;5.72;;
65187;SDS011;51775;51.148;6.950;2023-02-23T07:33:07;8.57;;;5.38;;
65187;SDS011;51775;51.148;6.950;2023-02-23T07:35:32;8.68;;;6.00;;
65187;SDS011;51775;51.148;6.950;2023-02-23T07:37:57;8.65;;;6.00;;
65187;SDS011;51775;51.148;6.950;2023-02-23T07:40:22;8.35;;;5.75;;
65187;SDS011;51775;51.148;6.950;2023-02-23T07:42:48;9.02;;;6.55;;
65187;SDS011;51775;51.148;6.950;2023-02-23T07:45:13;8.50;;;6.03;;
65187;SDS011;51775;51.148;6.950;2023-02-23T07:47:39;8.55;;;5.72;;
65187;SDS011;51775;51.148;6.950;2023-02-23T07:50:04;9.05;;;5.82;;
65187;SDS011;51775;51.148;6.950;2023-02-23T07:52:30;9.05;;;6.28;;
65187;SDS011;51775;51.148;6.950;2023-02-23T07:54:55;9.23;;;6.18;;
65187;SDS011;51775;51.148;6.950;2023-02-23T07:57:21;9.15;;;6.22;;
65187;SDS011;51775;51.148;6.950;2023-02-23T07:59:46;8.57;;;6.13;;
65187;SDS011;51775;51.148;6.950;2023-02-23T08:02:12;9.02;;;5.97;;
65187;SDS011;51775;51.148;6.950;2023-02-23T08:04:38;7.95;;;5.82;;
65187;SDS011;51775;51.148;6.950;2023-02-23T08:07:03;7.78;;;5.65;;
65187;SDS011;51775;51.148;6.950;2023-02-23T08:09:29;8.38;;;5.82;;
65187;SDS011;51775;51.148;6.950;2023-02-23T08:11:54;8.73;;;6.07;;
65187;SDS011;51775;51.148;6.950;2023-02-23T08:14:19;8.87;;;5.77;;
65187;SDS011;51775;51.148;6.950;2023-02-23T08:16:45;8.18;;;5.72;;
65187;SDS011;51775;51.148;6.950;2023-02-23T08:19:10;9.15;;;6.38;;
65187;SDS011;51775;51.148;6.950;2023-02-23T08:21:35;8.75;;;6.20;;
65187;SDS011;51775;51.148;6.950;2023-02-23T08:24:00;8.73;;;6.20;;
65187;SDS011;51775;51.148;6.950;2023-02-23T08:26:26;10.63;;;6.10;;
65187;SDS011;51775;51.148;6.950;2023-02-23T08:28:51;14.50;;;9.50;;
65187;SDS011;51775;51.148;6.950;2023-02-23T08:31:19;18.23;;;12.50;;
65187;SDS011;51775;51.148;6.950;2023-02-23T08:33:44;22.48;;;14.65;;
65187;SDS011;51775;51.148;6.950;2023-02-23T08:36:10;21.20;;;13.60;;
65187;SDS011;51775;51.148;6.950;2023-02-23T08:38:35;19.90;;;13.02;;
65187;SDS011;51775;51.148;6.950;2023-02-23T08:41:01;19.90;;;12.70;;
65187;SDS011;51775;51.148;6.950;2023-02-23T08:43:27;15.85;;;10.63;;
65187;SDS011;51775;51.148;6.950;2023-02-23T08:45:53;17.20;;;11.18;;
65187;SDS011;51775;51.148;6.950;2023-02-23T08:48:18;17.15;;;10.55;;
65187;SDS011;51775;51.148;6.950;2023-02-23T08:50:43;15.60;;;9.65;;
65187;SDS011;51775;51.148;6.950;2023-02-23T08:53:09;13.30;;;9.05;;
65187;SDS011;51775;51.148;6.950;2023-02-23T08:55:36;12.57;;;7.90;;
65187;SDS011;51775;51.148;6.950;2023-02-23T08:58:02;11.90;;;8.30;;
65187;SDS011;51775;51.148;6.950;2023-02-23T09:00:27;11.38;;;7.50;;
65187;SDS011;51775;51.148;6.950;2023-02-23T09:02:52;11.77;;;7.68;;
65187;SDS011;51775;51.148;6.950;2023-02-23T09:05:17;10.95;;;7.57;;
65187;SDS011;51775;51.148;6.950;2023-02-23T09:07:43;10.43;;;7.30;;
65187;SDS011;51775;51.148;6.950;2023-02-23T09:10:11;10.60;;;7.30;;
65187;SDS011;51775;51.148;6.950;2023-02-23T09:12:37;9.88;;;7.28;;
65187;SDS011;51775;51.148;6.950;2023-02-23T09:15:03;9.52;;;6.38;;
65187;SDS011;51775;51.148;6.950;2023-02-23T09:17:28;9.88;;;6.65;;
65187;SDS011;51775;51.148;6.950;2023-02-23T09:19:54;9.75;;;6.65;;
65187;SDS011;51775;51.148;6.950;2023-02-23T09:22:19;9.43;;;6.47;;
65187;SDS011;51775;51.148;6.950;2023-02-23T09:24:44;9.88;;;6.53;;
65187;SDS011;51775;51.148;6.950;2023-02-23T09:27:10;10.82;;;6.32;;
65187;SDS011;51775;51.148;6.950;2023-02-23T09:29:35;9.10;;;5.82;;
65187;SDS011;51775;51.148;6.950;2023-02-23T09:32:00;8.82;;;6.25;;
65187;SDS011;51775;51.148;6.950;2023-02-23T09:34:27;9.13;;;6.00;;
65187;SDS011;51775;51.148;6.950;2023-02-23T09:36:52;8.02;;;5.78;;
65187;SDS011;51775;51.148;6.950;2023-02-23T09:39:17;8.80;;;5.85;;
65187;SDS011;51775;51.148;6.950;2023-02-23T09:49:58;7.70;;;4.75;;
65187;SDS011;51775;51.148;6.950;2023-02-23T09:52:35;7.93;;;4.72;;
65187;SDS011;51775;51.148;6.950;2023-02-23T09:55:04;8.35;;;4.82;;
65187;SDS011;51775;51.148;6.950;2023-02-23T09:57:37;7.40;;;4.80;;
65187;SDS011;51775;51.148;6.950;2023-02-23T10:05:40;7.60;;;4.28;;
65187;SDS011;51775;51.148;6.950;2023-02-23T10:16:17;7.38;;;4.35;;
65187;SDS011;51775;51.148;6.950;2023-02-23T10:19:02;7.72;;;4.55;;
65187;SDS011;51775;51.148;6.950;2023-02-23T10:21:35;6.97;;;4.28;;
65187;SDS011;51775;51.148;6.950;2023-02-23T10:26:51;7.32;;;4.25;;
65187;SDS011;51775;51.148;6.950;2023-02-23T10:31:59;6.72;;;4.30;;
65187;SDS011;51775;51.148;6.950;2023-02-23T10:34:29;7.80;;;4.38;;
65187;SDS011;51775;51.148;6.950;2023-02-23T10:39:25;8.15;;;4.70;;
65187;SDS011;51775;51.148;6.950;2023-02-23T10:41:51;7.80;;;4.50;;
65187;SDS011;51775;51.148;6.950;2023-02-23T10:44:19;7.43;;;4.07;;
65187;SDS011;51775;51.148;6.950;2023-02-23T10:46:48;7.30;;;4.15;;
65187;SDS011;51775;51.148;6.950;2023-02-23T10:49:19;7.95;;;4.70;;
65187;SDS011;51775;51.148;6.950;2023-02-23T10:51:48;8.07;;;4.80;;
65187;SDS011;51775;51.148;6.950;2023-02-23T10:54:33;7.38;;;4.43;;
65187;SDS011;51775;51.148;6.950;2023-02-23T10:57:06;8.10;;;4.63;;
65187;SDS011;51775;51.148;6.950;2023-02-23T10:59:32;7.47;;;4.20;;
65187;SDS011;51775;51.148;6.950;2023-02-23T11:01:57;6.53;;;3.85;;
65187;SDS011;51775;51.148;6.950;2023-02-23T11:04:28;7.57;;;4.05;;
65187;SDS011;51775;51.148;6.950;2023-02-23T11:07:05;6.07;;;3.95;;
65187;SDS011;51775;51.148;6.950;2023-02-23T11:09:46;7.28;;;3.97;;
65187;SDS011;51775;51.148;6.950;2023-02-23T11:14:48;8.02;;;4.65;;
65187;SDS011;51775;51.148;6.950;2023-02-23T11:17:36;7.97;;;4.32;;
65187;SDS011;51775;51.148;6.950;2023-02-23T11:20:04;6.18;;;3.80;;
65187;SDS011;51775;51.148;6.950;2023-02-23T11:22:42;7.40;;;3.90;;
65187;SDS011;51775;51.148;6.950;2023-02-23T11:25:13;7.00;;;4.07;;
65187;SDS011;51775;51.148;6.950;2023-02-23T11:27:44;6.57;;;3.83;;
65187;SDS011;51775;51.148;6.950;2023-02-23T11:30:12;6.10;;;3.67;;
65187;SDS011;51775;51.148;6.950;2023-02-23T11:32:38;6.00;;;3.55;;
65187;SDS011;51775;51.148;6.950;2023-02-23T11:37:46;5.80;;;3.60;;
65187;SDS011;51775;51.148;6.950;2023-02-23T11:40:22;6.55;;;3.95;;
65187;SDS011;51775;51.148;6.950;2023-02-23T11:45:21;8.32;;;4.05;;
65187;SDS011;51775;51.148;6.950;2023-02-23T11:47:54;6.03;;;3.88;;
65187;SDS011;51775;51.148;6.950;2023-02-23T11:50:26;5.70;;;3.70;;
65187;SDS011;51775;51.148;6.950;2023-02-23T11:52:58;6.43;;;3.25;;
65187;SDS011;51775;51.148;6.950;2023-02-23T11:55:27;6.88;;;3.45;;
65187;SDS011;51775;51.148;6.950;2023-02-23T11:58:20;6.57;;;3.88;;
65187;SDS011;51775;51.148;6.950;2023-02-23T12:01:03;6.55;;;3.53;;
65187;SDS011;51775;51.148;6.950;2023-02-23T12:03:31;6.60;;;3.65;;
65187;SDS011;51775;51.148;6.950;2023-02-23T12:05:58;6.07;;;3.67;;
65187;SDS011;51775;51.148;6.950;2023-02-23T12:11:10;6.13;;;3.28;;
65187;SDS011;51775;51.148;6.950;2023-02-23T12:13:50;5.45;;;3.15;;
65187;SDS011;51775;51.148;6.950;2023-02-23T12:16:22;5.95;;;3.10;;
65187;SDS011;51775;51.148;6.950;2023-02-23T12:22:27;6.25;;;3.42;;
65187;SDS011;51775;51.148;6.950;2023-02-23T12:24:46;5.38;;;2.72;;
65187;SDS011;51775;51.148;6.950;2023-02-23T12:27:25;7.63;;;4.88;;
65187;SDS011;51775;51.148;6.950;2023-02-23T12:30:05;4.72;;;3.15;;
65187;SDS011;51775;51.148;6.950;2023-02-23T12:35:09;7.30;;;2.90;;
65187;SDS011;51775;51.148;6.950;2023-02-23T12:38:02;7.45;;;5.03;;
65187;SDS011;51775;51.148;6.950;2023-02-23T12:40:27;5.22;;;3.10;;
65187;SDS011;51775;51.148;6.950;2023-02-23T12:43:13;5.13;;;3.10;;
65187;SDS011;51775;51.148;6.950;2023-02-23T12:45:52;7.72;;;3.25;;
65187;SDS011;51775;51.148;6.950;2023-02-23T12:48:32;5.53;;;2.70;;
65187;SDS011;51775;51.148;6.950;2023-02-23T12:54:00;5.28;;;3.20;;
65187;SDS011;51775;51.148;6.950;2023-02-23T12:56:34;5.15;;;3.10;;
65187;SDS011;51775;51.148;6.950;2023-02-23T13:02:16;6.55;;;4.07;;
65187;SDS011;51775;51.148;6.950;2023-02-23T13:07:28;5.18;;;2.70;;
65187;SDS011;51775;51.148;6.950;2023-02-23T13:15:17;6.97;;;3.90;;
65187;SDS011;51775;51.148;6.950;2023-02-23T13:17:54;4.47;;;2.30;;
65187;SDS011;51775;51.148;6.950;2023-02-23T13:23:22;4.93;;;2.97;;
65187;SDS011;51775;51.148;6.950;2023-02-23T13:29:00;4.88;;;2.47;;
65187;SDS011;51775;51.148;6.950;2023-02-23T13:31:22;5.88;;;3.78;;
65187;SDS011;51775;51.148;6.950;2023-02-23T13:33:54;4.95;;;2.80;;
65187;SDS011;51775;51.148;6.950;2023-02-23T13:36:21;6.40;;;4.20;;
65187;SDS011;51775;51.148;6.950;2023-02-23T13:41:40;6.40;;;4.22;;
65187;SDS011;51775;51.148;6.950;2023-02-23T13:47:15;6.07;;;3.97;;
65187;SDS011;51775;51.148;6.950;2023-02-23T13:49:55;3.67;;;2.28;;
65187;SDS011;51775;51.148;6.950;2023-02-23T13:52:30;6.47;;;3.97;;
65187;SDS011;51775;51.148;6.950;2023-02-23T13:55:03;4.70;;;2.60;;
65187;SDS011;51775;51.148;6.950;2023-02-23T13:57:49;6.47;;;4.07;;
65187;SDS011;51775;51.148;6.950;2023-02-23T14:00:16;3.85;;;2.28;;
65187;SDS011;51775;51.148;6.950;2023-02-23T14:02:44;5.60;;;3.65;;
65187;SDS011;51775;51.148;6.950;2023-02-23T14:05:15;3.95;;;2.28;;
65187;SDS011;51775;51.148;6.950;2023-02-23T14:07:46;6.43;;;4.20;;
65187;SDS011;51775;51.148;6.950;2023-02-23T14:10:24;5.20;;;2.80;;
65187;SDS011;51775;51.148;6.950;2023-02-23T14:13:03;6.53;;;4.00;;
65187;SDS011;51775;51.148;6.950;2023-02-23T14:17:59;5.73;;;3.83;;
65187;SDS011;51775;51.148;6.950;2023-02-23T14:23:15;5.63;;;3.47;;
65187;SDS011;51775;51.148;6.950;2023-02-23T14:28:35;6.40;;;4.00;;
65187;SDS011;51775;51.148;6.950;2023-02-23T14:31:05;6.13;;;2.92;;
65187;SDS011;51775;51.148;6.950;2023-02-23T14:41:34;4.70;;;2.65;;
65187;SDS011;51775;51.148;6.950;2023-02-23T14:44:16;4.93;;;3.33;;
65187;SDS011;51775;51.148;6.950;2023-02-23T14:49:31;5.35;;;3.30;;
65187;SDS011;51775;51.148;6.950;2023-02-23T14:52:03;5.45;;;3.58;;
65187;SDS011;51775;51.148;6.950;2023-02-23T14:54:50;5.70;;;3.47;;
65187;SDS011;51775;51.148;6.950;2023-02-23T14:57:18;5.75;;;3.58;;
65187;SDS011;51775;51.148;6.950;2023-02-23T14:59:56;5.38;;;3.42;;
65187;SDS011;51775;51.148;6.950;2023-02-23T15:02:24;5.40;;;3.33;;
65187;SDS011;51775;51.148;6.950;2023-02-23T15:04:51;5.18;;;3.33;;
65187;SDS011;51775;51.148;6.950;2023-02-23T15:09:46;5.55;;;3.08;;
65187;SDS011;51775;51.148;6.950;2023-02-23T15:12:13;5.57;;;3.30;;
65187;SDS011;51775;51.148;6.950;2023-02-23T15:14:41;6.28;;;3.60;;
65187;SDS011;51775;51.148;6.950;2023-02-23T15:17:15;5.70;;;3.80;;
65187;SDS011;51775;51.148;6.950;2023-02-23T15:19:44;5.63;;;3.60;;
65187;SDS011;51775;51.148;6.950;2023-02-23T15:22:15;6.90;;;3.65;;
65187;SDS011;51775;51.148;6.950;2023-02-23T15:29:41;6.38;;;4.00;;
65187;SDS011;51775;51.148;6.950;2023-02-23T15:32:11;6.38;;;4.10;;
65187;SDS011;51775;51.148;6.950;2023-02-23T15:34:41;5.60;;;3.70;;
65187;SDS011;51775;51.148;6.950;2023-02-23T15:37:10;5.85;;;3.53;;
65187;SDS011;51775;51.148;6.950;2023-02-23T15:39:58;6.85;;;3.88;;
65187;SDS011;51775;51.148;6.950;2023-02-23T15:42:37;6.25;;;3.80;;
65187;SDS011;51775;51.148;6.950;2023-02-23T15:48:02;6.70;;;4.07;;
65187;SDS011;51775;51.148;6.950;2023-02-23T15:50:31;6.35;;;4.10;;
65187;SDS011;51775;51.148;6.950;2023-02-23T15:52:59;6.35;;;3.83;;
65187;SDS011;51775;51.148;6.950;2023-02-23T15:55:34;6.78;;;3.90;;
65187;SDS011;51775;51.148;6.950;2023-02-23T15:58:08;6.93;;;4.22;;
65187;SDS011;51775;51.148;6.950;2023-02-23T16:00:44;5.95;;;3.95;;
65187;SDS011;51775;51.148;6.950;2023-02-23T16:03:27;6.82;;;4.00;;
65187;SDS011;51775;51.148;6.950;2023-02-23T16:06:05;6.85;;;4.10;;
65187;SDS011;51775;51.148;6.950;2023-02-23T16:08:32;5.72;;;3.45;;
65187;SDS011;51775;51.148;6.950;2023-02-23T16:11:14;7.32;;;3.80;;
65187;SDS011;51775;51.148;6.950;2023-02-23T16:13:41;6.10;;;3.63;;
65187;SDS011;51775;51.148;6.950;2023-02-23T16:16:08;6.32;;;3.55;;
65187;SDS011;51775;51.148;6.950;2023-02-23T16:18:37;5.95;;;3.78;;
65187;SDS011;51775;51.148;6.950;2023-02-23T16:21:04;6.07;;;3.55;;
65187;SDS011;51775;51.148;6.950;2023-02-23T16:23:33;6.22;;;3.72;;
65187;SDS011;51775;51.148;6.950;2023-02-23T16:26:00;6.97;;;3.80;;
65187;SDS011;51775;51.148;6.950;2023-02-23T16:28:56;5.80;;;3.72;;
65187;SDS011;51775;51.148;6.950;2023-02-23T16:31:24;6.78;;;4.15;;
65187;SDS011;51775;51.148;6.950;2023-02-23T16:34:16;6.80;;;3.97;;
65187;SDS011;51775;51.148;6.950;2023-02-23T16:37:10;6.75;;;3.88;;
65187;SDS011;51775;51.148;6.950;2023-02-23T16:39:39;5.97;;;3.75;;
65187;SDS011;51775;51.148;6.950;2023-02-23T16:42:04;6.88;;;3.88;;
65187;SDS011;51775;51.148;6.950;2023-02-23T16:44:29;6.45;;;3.92;;
65187;SDS011;51775;51.148;6.950;2023-02-23T16:46:56;6.00;;;3.78;;
65187;SDS011;51775;51.148;6.950;2023-02-23T16:49:24;6.63;;;4.03;;
65187;SDS011;51775;51.148;6.950;2023-02-23T16:51:50;5.88;;;3.75;;
65187;SDS011;51775;51.148;6.950;2023-02-23T16:54:15;6.53;;;3.58;;
65187;SDS011;51775;51.148;6.950;2023-02-23T16:56:40;5.90;;;3.60;;
65187;SDS011;51775;51.148;6.950;2023-02-23T16:59:06;6.60;;;3.80;;
65187;SDS011;51775;51.148;6.950;2023-02-23T17:01:31;6.38;;;3.75;;
65187;SDS011;51775;51.148;6.950;2023-02-23T17:03:57;7.03;;;4.13;;
65187;SDS011;51775;51.148;6.950;2023-02-23T17:06:22;6.10;;;3.78;;
65187;SDS011;51775;51.148;6.950;2023-02-23T17:08:47;6.68;;;4.15;;
65187;SDS011;51775;51.148;6.950;2023-02-23T17:11:13;5.78;;;3.70;;
65187;SDS011;51775;51.148;6.950;2023-02-23T17:13:38;5.53;;;3.30;;
65187;SDS011;51775;51.148;6.950;2023-02-23T17:16:04;6.13;;;3.83;;
65187;SDS011;51775;51.148;6.950;2023-02-23T17:18:32;6.88;;;3.97;;
65187;SDS011;51775;51.148;6.950;2023-02-23T17:20:59;5.80;;;3.60;;
65187;SDS011;51775;51.148;6.950;2023-02-23T17:23:27;8.00;;;3.95;;
65187;SDS011;51775;51.148;6.950;2023-02-23T17:25:53;6.40;;;3.97;;
65187;SDS011;51775;51.148;6.950;2023-02-23T17:28:19;6.65;;;3.90;;